Latest Weather Observations for Griffith

IDN60801

Issued at 5:02 am EST Sunday 19 April 2015 (issued every 30 minutes, with the page automatically refreshed every 10 minutes)

About weather observations | Map of weather stations | Latest weather observations for NSW | Other Formats
Station Details ID: 075041 Name: GRIFFITH AIRPORT AWS Lat: -34.25 Lon: 146.07 Height: 134.0 m
Data from the previous 72 hours. | See also: Recent months at Griffith
Date/Time
EST
Temp
°C
App
Temp
°C
Dew
Point
Rel
Hum
%
Delta-T
°C
Wind Press
QNH
hPa
Press
MSL
hPa
Rain
since 9 am
mm
Dir
 
Spd
km/h
Gust
km/h
Spd
kts
Gust
kts
19/05:00am 12.0 6.7 11.4 96 0.3 SSW 30 39 16 21 1019.5 1019.3 8.2
19/04:30am 12.4 8.5 12.2 99 0.1 SW 24 33 13 18 1019.0 1018.8 8.2
19/04:00am 12.8 10.4 12.6 99 0.1 WSW 17 24 9 13 1018.5 1018.3 8.2
19/03:30am 12.8 10.8 12.6 99 0.1 W 15 19 8 10 1018.3 1018.1 8.2
19/03:11am 12.5 10.8 12.3 99 0.1 W 13 19 7 10 1018.4 1018.2 8.2
19/03:00am 12.4 10.6 12.2 99 0.1 WNW 13 15 7 8 1018.3 1018.1 8.2
19/02:30am 12.2 10.4 12.0 99 0.1 WNW 13 15 7 8 1018.3 1018.1 8.2
19/02:00am 12.6 11.3 12.4 99 0.1 NW 11 15 6 8 1018.4 1018.2 8.2
19/01:30am 12.5 11.1 12.3 99 0.1 NNW 11 15 6 8 1018.6 1018.4 8.2
19/01:00am 12.5 11.1 12.3 99 0.1 NW 11 15 6 8 1018.5 1018.3 8.2
19/12:30am 12.6 11.3 12.4 99 0.1 NW 11 30 6 16 1018.4 1018.2 8.2
19/12:00am 12.7 11.5 12.7 100 0.0 NW 11 15 6 8 1018.2 1017.9 8.0
 
Date/Time
EST
Temp
°C
App
Temp
°C
Dew
Point
Rel
Hum
%
Delta-T
°C
Wind Press
QNH
hPa
Press
MSL
hPa
Rain
since 9 am
mm
Dir
 
Spd
km/h
Gust
km/h
Spd
kts
Gust
kts
18/11:30pm 12.5 11.9 12.3 99 0.1 NNW 7 9 4 5 1018.2 1017.9 8.0
18/11:00pm 12.2 11.1 12.0 99 0.1 WNW 9 11 5 6 1018.3 1018.1 8.0
18/10:30pm 12.8 11.9 12.6 99 0.1 NNW 9 11 5 6 1018.1 1017.8 8.0
18/10:00pm 12.9 12.6 12.7 99 0.1 WNW 6 7 3 4 1017.9 1017.6 8.0
18/09:30pm 13.2 12.4 13.0 99 0.1 NW 9 9 5 5 1017.9 1017.6 8.0
18/09:00pm 13.4 13.1 13.2 99 0.1 NW 7 9 4 5 1017.7 1017.4 8.0
18/08:30pm 13.7 13.1 13.5 99 0.1 WNW 9 13 5 7 1017.3 1017.0 8.0
18/08:00pm 14.4 13.3 14.2 99 0.1 W 13 17 7 9 1017.0 1016.7 8.0
18/07:30pm 14.8 13.8 14.6 99 0.1 W 13 17 7 9 1016.6 1016.3 8.0
18/07:12pm 15.0 13.3 14.8 99 0.1 WSW 17 24 9 13 1016.5 1016.2 8.0
18/07:00pm 15.1 13.1 14.9 99 0.1 W 19 26 10 14 1016.3 1016.0 8.0
18/06:30pm 15.4 13.9 15.2 99 0.1 W 17 20 9 11 1015.3 1015.1 8.0
18/06:00pm 15.5 14.4 15.3 99 0.1 W 15 22 8 12 1015.3 1015.1 8.0
18/05:30pm 15.6 12.4 15.4 99 0.1 WSW 26 32 14 17 1015.2 1015.0 8.0
18/05:00pm 16.4 13.9 16.2 99 0.1 WSW 24 32 13 17 1014.4 1014.2 8.0
18/04:30pm 17.0 16.5 17.0 100 0.0 W 15 17 8 9 1014.0 1013.8 8.0
18/04:26pm 17.1 17.1 17.1 100 0.0 W 13 17 7 9 1014.1 1013.9 8.0
18/04:00pm 17.0 16.5 17.0 100 0.0 WSW 15 20 8 11 1013.8 1013.6 8.0
18/03:30pm 17.2 16.4 17.2 100 0.0 WSW 17 22 9 12 1014.3 1014.1 7.0
18/03:07pm 17.2 16.4 17.0 99 0.1 WSW 17 22 9 12 1014.0 1013.8 5.2
18/03:00pm 17.4 16.1 17.2 99 0.1 WSW 20 28 11 15 1013.9 1013.7 4.8
18/02:48pm 17.4 15.3 17.2 99 0.1 WSW 24 32 13 17 1013.8 1013.6 3.8
18/02:30pm 19.1 18.5 18.9 99 0.1 NNW 20 30 11 16 1013.4 1013.2 1.6
18/02:00pm 19.2 18.3 19.0 99 0.1 NNW 22 32 12 17 1013.6 1013.4 1.4
18/01:30pm 19.3 19.0 19.1 99 0.1 NNW 19 24 10 13 1013.8 1013.6 1.2
18/01:00pm 19.3 18.7 18.8 97 0.3 NNW 20 28 11 15 1014.1 1013.9 0.8
18/12:55pm 19.2 18.4 18.4 95 0.5 NNW 20 28 11 15 1014.1 1013.9 0.8
18/12:30pm 19.1 18.1 17.9 93 0.7 NNW 20 28 11 15 1014.5 1014.3 0.8
18/12:00pm 19.5 17.7 17.8 90 1.0 NNW 24 33 13 18 1014.9 1014.7 0.4
18/11:30am 20.3 18.7 17.5 84 1.7 NNW 22 30 12 16 1015.0 1014.8 0.4
18/11:00am 20.1 19.4 18.2 89 1.2 NNW 19 26 10 14 1015.4 1015.2 0.4
18/10:30am 19.3 18.9 18.1 93 0.7 NNW 17 20 9 11 1015.8 1015.5 0.4
18/10:00am 18.9 18.7 18.6 98 0.2 NNW 17 20 9 11 1016.0 1015.7 0.4
18/09:30am 18.6 18.4 18.4 99 0.1 NNW 17 22 9 12 1016.2 1015.9 0.2
18/09:00am 18.5 18.2 18.2 98 0.2 N 17 20 9 11 1016.4 1016.1 4.2
18/08:30am 18.4 18.3 17.9 97 0.3 N 15 20 8 11 1016.4 1016.1 4.0
18/08:00am 18.3 18.6 17.8 97 0.3 NNW 13 15 7 8 1016.3 1016.0 4.0
18/07:30am 18.4 18.3 17.8 96 0.4 N 15 19 8 10 1016.1 1015.8 3.8
18/07:00am 18.0 18.6 17.8 99 0.1 N 11 13 6 7 1015.5 1015.3 3.6
18/06:30am 17.8 19.7 17.6 99 0.1 N 4 9 2 5 1015.2 1015.0 3.4
18/06:00am 17.8 20.1 17.8 100 0.0 WNW 2 7 1 4 1015.1 1014.9 3.4
18/05:30am 17.8 20.1 17.8 100 0.0 WNW 2 6 1 3 1015.2 1015.0 3.4
18/05:00am 17.8 19.4 17.8 100 0.0 WNW 6 7 3 4 1015.4 1015.2 3.4
18/04:30am 17.8 19.2 17.8 100 0.0 W 7 11 4 6 1015.4 1015.2 3.2
18/04:00am 17.8 18.4 17.8 100 0.0 WNW 11 13 6 7 1015.4 1015.2 3.0
18/03:30am 18.0 20.3 17.8 99 0.1 N 2 9 1 5 1015.0 1014.8 3.0
18/03:00am 18.0 20.7 17.8 99 0.1 CALM 0 0 0 0 1014.7 1014.5 3.0
18/02:30am 18.1 20.9 17.9 99 0.1 CALM 0 0 0 0 1014.9 1014.7 3.0
18/02:00am 18.3 19.8 18.1 99 0.1 SW 7 9 4 5 1015.0 1014.8 3.0
18/01:30am 18.5 19.6 18.0 97 0.3 SSW 9 13 5 7 1015.1 1014.9 3.0
18/01:00am 18.5 19.1 17.7 95 0.5 ESE 11 15 6 8 1014.9 1014.7 3.0
18/12:30am 18.3 17.4 18.1 99 0.1 E 20 26 11 14 1014.5 1014.3 3.0
18/12:00am 18.3 16.6 18.1 99 0.1 ESE 24 30 13 16 1014.7 1014.5 3.0
 
Date/Time
EST
Temp
°C
App
Temp
°C
Dew
Point
Rel
Hum
%
Delta-T
°C
Wind Press
QNH
hPa
Press
MSL
hPa
Rain
since 9 am
mm
Dir
 
Spd
km/h
Gust
km/h
Spd
kts
Gust
kts
17/11:30pm 18.3 17.9 18.1 99 0.1 ESE 17 20 9 11 1015.3 1015.1 2.8
17/11:00pm 18.3 17.4 18.1 99 0.1 ESE 20 24 11 13 1015.6 1015.4 2.8
17/10:30pm 18.4 17.7 18.2 99 0.1 ESE 19 20 10 11 1016.8 1016.5 2.8
17/10:00pm 18.5 19.4 18.3 99 0.1 ESE 11 19 6 10 1017.0 1016.7 2.6
17/09:30pm 18.7 17.9 18.5 99 0.1 ESE 20 22 11 12 1017.2 1016.9 2.4
17/09:00pm 18.8 18.5 18.3 97 0.3 ESE 17 20 9 11 1017.2 1016.9 2.4
17/08:30pm 18.9 18.3 18.4 97 0.3 E 19 24 10 13 1017.4 1017.1 2.4
17/08:00pm 19.1 17.8 18.1 94 0.6 E 22 26 12 14 1017.2 1016.9 2.2
17/07:30pm 19.3 18.3 18.0 92 0.8 E 20 26 11 14 1017.1 1016.8 2.2
17/07:00pm 19.5 18.4 17.8 90 1.0 E 20 26 11 14 1016.9 1016.6 2.2
17/06:30pm 19.7 20.3 17.8 89 1.2 E 11 15 6 8 1017.2 1016.9 2.2
17/06:00pm 19.8 19.7 17.9 89 1.2 E 15 19 8 10 1017.1 1016.8 2.0
17/05:30pm 20.2 20.7 18.3 89 1.2 E 13 17 7 9 1017.4 1017.1 2.0
17/05:00pm 20.6 20.9 17.8 84 1.7 E 13 15 7 8 1017.4 1017.1 2.0
17/04:30pm 21.0 21.2 17.6 81 2.1 E 13 17 7 9 1017.2 1016.9 2.0
17/04:00pm 21.2 22.1 17.6 80 2.2 E 9 11 5 6 1017.6 1017.3 2.0
17/03:30pm 21.1 22.2 17.9 82 2.0 ENE 9 13 5 7 1017.9 1017.6 2.0
17/03:00pm 21.1 22.0 18.3 84 1.8 ENE 11 15 6 8 1017.9 1017.6 2.0
17/02:30pm 20.8 22.2 17.8 83 1.9 NNE 7 11 4 6 1018.3 1018.1 2.0
17/02:00pm 20.6 22.0 17.8 84 1.7 ENE 7 11 4 6 1018.3 1018.1 2.0
17/01:30pm 20.2 20.8 17.8 86 1.5 NE 11 17 6 9 1018.5 1018.3 2.0
17/01:00pm 19.8 20.4 18.6 93 0.8 ENE 13 17 7 9 1018.7 1018.5 2.0
17/12:30pm 19.1 20.0 18.4 96 0.4 ENE 11 17 6 9 1019.6 1019.4 2.0
17/12:00pm 18.3 17.9 18.1 99 0.1 ENE 17 20 9 11 1019.9 1019.7 2.0
17/11:30am 17.3 16.9 17.1 99 0.1 ENE 15 19 8 10 1020.5 1020.3 2.0
17/11:00am 16.7 16.8 16.5 99 0.1 E 11 13 6 7 1021.4 1021.2 1.8
17/10:30am 16.3 15.9 16.1 99 0.1 ENE 13 17 7 9 1021.8 1021.6 1.4
17/10:00am 16.0 15.5 15.8 99 0.1 ENE 13 19 7 10 1022.5 1022.3 0.8
17/09:30am 15.8 14.4 15.6 99 0.1 E 17 22 9 12 1022.7 1022.5 0.0
17/09:00am 15.7 13.9 15.5 99 0.1 E 19 22 10 12 1022.8 1022.6 7.8
17/08:30am 15.5 13.4 15.3 99 0.1 E 20 24 11 13 1022.9 1022.7 7.8
17/08:00am 15.3 13.4 15.1 99 0.1 E 19 22 10 12 1023.0 1022.8 7.6
17/07:30am 15.2 13.2 15.0 99 0.1 E 19 24 10 13 1022.8 1022.6 7.6
17/07:00am 15.2 14.0 15.0 99 0.1 E 15 20 8 11 1022.8 1022.6 7.4
17/06:30am 15.1 14.6 14.9 99 0.1 ESE 11 15 6 8 1022.9 1022.7 7.0
17/06:00am 15.0 13.7 14.8 99 0.1 SE 15 19 8 10 1022.4 1022.2 7.0
17/05:30am 15.0 15.2 14.8 99 0.1 SE 7 11 4 6 1022.8 1022.6 6.8
17/05:00am 15.1 15.3 14.6 97 0.3 ESE 7 11 4 6 1022.7 1022.5 5.8
17/04:30am 15.2 15.1 15.0 99 0.1 ESE 9 17 5 9 1021.6 1021.4 5.6
17/04:00am 15.1 14.8 14.5 96 0.3 SE 9 13 5 7 1021.9 1021.7 5.0
17/03:30am 15.2 14.4 14.1 93 0.6 SE 11 15 6 8 1022.0 1021.8 4.2
17/03:00am 15.1 14.2 13.8 92 0.7 SE 11 15 6 8 1022.1 1021.9 4.0
17/02:30am 15.8 15.1 14.3 91 0.9 WSW 11 13 6 7 1023.8 1023.5 3.0
17/02:00am 16.1 15.6 13.9 87 1.2 SE 9 13 5 7 1022.9 1022.7 1.8
17/01:30am 16.6 16.2 14.2 86 1.4 SE 9 11 5 6 1023.1 1022.9 1.2
17/01:00am 16.7 15.9 13.0 79 2.1 SSE 9 13 5 7 1023.1 1022.9 1.0
17/12:30am 17.5 19.2 15.3 87 1.3 CALM 0 4 0 2 1023.7 1023.4 0.6
17/12:00am 18.0 18.6 15.4 85 1.5 SW 6 9 3 5 1023.9 1023.6 0.4
 
Date/Time
EST
Temp
°C
App
Temp
°C
Dew
Point
Rel
Hum
%
Delta-T
°C
Wind Press
QNH
hPa
Press
MSL
hPa
Rain
since 9 am
mm
Dir
 
Spd
km/h
Gust
km/h
Spd
kts
Gust
kts
16/11:30pm 18.4 20.4 16.0 86 1.4 CALM 0 0 0 0 1023.7 1023.4 0.0
16/11:00pm 18.6 20.5 15.8 84 1.7 CALM 0 0 0 0 1023.6 1023.3 0.0
16/10:30pm 18.8 20.2 14.5 76 2.5 CALM 0 0 0 0 1023.4 1023.2 0.0
16/10:00pm 19.1 20.3 13.7 71 3.1 CALM 0 0 0 0 1023.8 1023.5 0.0
16/09:30pm 19.7 19.1 12.2 62 4.2 WNW 7 7 4 4 1024.3 1024.0 0.0
16/09:00pm 20.5 18.4 11.2 55 5.1 W 13 15 7 8 1024.0 1023.7 0.0
16/08:30pm 21.5 19.7 10.9 51 5.9 SW 11 13 6 7 1023.4 1023.2 0.0
16/08:00pm 21.7 19.2 11.1 51 5.9 SW 15 20 8 11 1023.6 1023.3 0.0
16/07:30pm 23.1 19.4 9.5 42 7.4 SW 19 24 10 13 1023.3 1023.1 0.0
16/07:00pm 23.3 20.1 10.0 43 7.3 WSW 17 20 9 11 1023.1 1022.9 0.0
16/06:30pm 24.2 20.6 8.2 36 8.6 WSW 17 20 9 11 1022.4 1022.2 0.0
16/06:00pm 24.8 21.1 7.9 34 9.0 WSW 17 22 9 12 1022.1 1021.9 0.0
16/05:30pm 25.7 22.5 6.8 30 10.0 SW 13 15 7 8 1021.4 1021.2 0.0
16/05:00pm 26.1 23.1 6.2 28 10.4 SSW 11 17 6 9 1020.9 1020.7 0.0
16/04:30pm 27.3 23.7 6.7 27 10.9 SW 15 22 8 12 1020.6 1020.4 0.0
16/04:00pm 27.5 24.4 5.7 25 11.3 S 11 19 6 10 1020.7 1020.5 0.0
16/03:30pm 27.7 23.9 5.9 25 11.4 S 15 20 8 11 1020.5 1020.3 0.0
16/03:00pm 27.3 23.7 6.7 27 10.9 S 15 24 8 13 1020.9 1020.7 0.0
16/02:30pm 27.6 25.1 6.4 26 11.2 SW 9 19 5 10 1021.0 1020.8 0.0
16/02:00pm 27.4 24.2 6.8 27 10.9 SW 13 22 7 12 1021.1 1020.9 0.0
16/01:30pm 27.5 23.9 6.8 27 11.0 WSW 15 26 8 14 1021.2 1021.0 0.0
16/01:00pm 27.2 23.7 7.1 28 10.7 SW 15 22 8 12 1021.7 1021.5 0.0
16/12:30pm 26.5 23.1 7.5 30 10.2 SSW 15 22 8 12 1022.1 1021.9 0.0
16/12:00pm 26.0 23.2 8.5 33 9.5 S 13 19 7 10 1022.7 1022.5 0.0
16/11:30am 25.1 22.5 9.4 37 8.6 WSW 13 19 7 10 1023.3 1023.1 0.0
16/11:00am 24.6 22.2 10.1 40 8.0 SW 13 24 7 13 1023.7 1023.4 0.0
16/10:30am 23.6 21.6 10.3 43 7.4 WSW 11 15 6 8 1023.9 1023.6 0.0
16/10:00am 22.6 21.7 11.4 49 6.3 SW 7 13 4 7 1023.7 1023.4 0.0
16/09:30am 21.3 19.6 11.1 52 5.7 WSW 11 15 6 8 1024.0 1023.7 0.0
16/09:00am 20.2 18.4 10.9 55 5.1 WSW 11 13 6 7 1023.9 1023.6 0.0
16/08:30am 19.1 17.6 10.4 57 4.7 W 9 11 5 6 1023.7 1023.4 0.0
16/08:00am 17.7 16.6 10.6 63 3.8 W 7 9 4 5 1023.4 1023.2 0.0
16/07:30am 15.9 14.9 10.2 69 3.0 SW 6 7 3 4 1022.9 1022.7 0.0
16/07:00am 14.0 13.8 9.2 73 2.5 CALM 0 0 0 0 1022.6 1022.4 0.0
16/06:30am 14.6 13.1 9.2 70 2.8 SW 7 9 4 5 1022.5 1022.3 0.0
16/06:00am 15.1 13.2 9.2 68 3.0 N 9 11 5 6 1022.3 1022.1 0.0
16/05:30am 14.5 13.0 8.5 67 3.0 NNW 6 9 3 5 1021.5 1021.3 0.0

Other Formats:

Comma delimited format used in spreadsheet applications
http://www.bom.gov.au/fwo/IDN60801/IDN60801.95704.axf

JavaScript Object Notation format (JSON) in row-major order
http://www.bom.gov.au/fwo/IDN60801/IDN60801.95704.json